createdAt,value
2018-06-15T00:01:08.676Z,4.30
2018-06-15T00:03:37.724Z,4.60
2018-06-15T00:06:07.235Z,4.50
2018-06-15T00:08:36.316Z,3.50
2018-06-15T00:11:05.336Z,4.63
2018-06-15T00:13:34.352Z,3.77
2018-06-15T00:16:03.356Z,5.00
2018-06-15T00:18:33.384Z,4.23
2018-06-15T00:21:03.291Z,4.93
2018-06-15T00:23:32.280Z,4.80
2018-06-15T00:26:01.273Z,4.27
2018-06-15T00:28:30.356Z,4.73
2018-06-15T00:30:59.356Z,4.50
2018-06-15T00:33:28.384Z,4.40
2018-06-15T00:35:57.368Z,4.90
2018-06-15T00:38:26.360Z,5.67
2018-06-15T00:40:55.391Z,3.87
2018-06-15T00:43:24.428Z,4.83
2018-06-15T00:45:53.604Z,4.60
2018-06-15T00:48:22.622Z,4.57
2018-06-15T00:50:51.616Z,4.93
2018-06-15T00:53:20.656Z,5.57
2018-06-15T00:55:49.636Z,3.67
2018-06-15T00:58:18.657Z,4.97
2018-06-15T01:00:47.683Z,4.83
2018-06-15T01:03:16.888Z,5.10
2018-06-15T01:05:45.871Z,5.07
2018-06-15T01:08:14.892Z,5.60
2018-06-15T01:10:43.913Z,5.60
2018-06-15T01:13:12.929Z,5.20
2018-06-15T01:15:41.953Z,4.50
2018-06-15T01:18:10.936Z,5.23
2018-06-15T01:20:39.962Z,5.70
2018-06-15T01:23:09.000Z,4.83
2018-06-15T01:25:38.135Z,4.13
2018-06-15T01:28:07.307Z,5.40
2018-06-15T01:30:36.400Z,5.83
2018-06-15T01:33:05.402Z,5.30
2018-06-15T01:35:34.396Z,5.03
2018-06-15T01:38:03.412Z,4.97
2018-06-15T01:40:32.681Z,6.80
2018-06-15T01:43:01.676Z,5.70
2018-06-15T01:45:30.656Z,5.27
2018-06-15T01:47:59.680Z,6.57
2018-06-15T01:50:28.672Z,4.93
2018-06-15T01:52:57.693Z,6.13
2018-06-15T01:55:26.716Z,5.40
2018-06-15T01:57:55.727Z,7.67
2018-06-15T02:00:24.772Z,6.30
2018-06-15T02:02:53.810Z,5.83
2018-06-15T02:05:22.796Z,6.40
2018-06-15T02:07:52.038Z,6.30
2018-06-15T02:10:20.979Z,6.70
2018-06-15T02:12:49.961Z,5.70
2018-06-15T02:15:19.256Z,6.47
2018-06-15T02:17:48.256Z,6.20
2018-06-15T02:20:17.245Z,6.53
2018-06-15T02:22:46.033Z,6.63
2018-06-15T02:25:14.917Z,7.30
2018-06-15T02:27:43.900Z,6.60
2018-06-15T02:30:12.962Z,6.23
2018-06-15T02:32:42.028Z,7.70
2018-06-15T02:35:11.085Z,6.53
2018-06-15T02:37:40.087Z,6.37
2018-06-15T02:40:09.185Z,6.50
2018-06-15T02:42:38.357Z,6.67
2018-06-15T02:45:07.480Z,5.90
2018-06-15T02:47:36.484Z,5.87
2018-06-15T02:50:05.516Z,5.40
2018-06-15T02:52:34.561Z,5.73
2018-06-15T02:55:03.626Z,5.50
2018-06-15T02:57:32.636Z,5.40
2018-06-15T03:00:01.649Z,6.40
2018-06-15T03:02:30.922Z,6.30
2018-06-15T03:04:59.944Z,6.13
2018-06-15T03:07:28.954Z,7.03
2018-06-15T03:09:58.021Z,5.93
2018-06-15T03:12:27.417Z,5.40
2018-06-15T03:14:56.653Z,6.20
2018-06-15T03:17:25.706Z,6.63
2018-06-15T03:19:55.382Z,5.30
2018-06-15T03:22:24.367Z,5.73
2018-06-15T03:24:53.372Z,5.57
2018-06-15T03:27:22.509Z,5.87
2018-06-15T03:29:51.794Z,5.70
2018-06-15T03:32:20.772Z,6.40
2018-06-15T03:34:49.808Z,6.83
2018-06-15T03:37:18.836Z,6.70
2018-06-15T03:39:48.110Z,6.60
2018-06-15T03:42:17.109Z,6.53
2018-06-15T03:44:45.884Z,8.87
2018-06-15T03:47:14.873Z,9.27
2018-06-15T03:49:43.869Z,10.07
2018-06-15T03:52:12.909Z,8.63
2018-06-15T03:54:42.149Z,9.13
2018-06-15T03:57:11.162Z,10.03
2018-06-15T03:59:40.162Z,8.67
2018-06-15T04:02:09.225Z,9.97
2018-06-15T04:04:38.253Z,9.30
2018-06-15T04:07:07.331Z,9.00
2018-06-15T04:09:36.954Z,10.07
2018-06-15T04:12:06.128Z,11.20
2018-06-15T04:14:35.131Z,9.83
2018-06-15T04:17:04.157Z,10.70
2018-06-15T04:19:33.184Z,10.47
2018-06-15T04:22:02.391Z,10.40
2018-06-15T04:24:31.383Z,11.23
2018-06-15T04:27:00.408Z,9.60
2018-06-15T04:29:29.436Z,10.93
2018-06-15T04:31:58.469Z,11.37
2018-06-15T04:34:27.461Z,10.87
2018-06-15T04:36:56.584Z,11.70
2018-06-15T04:39:25.568Z,10.50
2018-06-15T04:41:54.597Z,11.50
2018-06-15T04:44:23.856Z,12.07
2018-06-15T04:46:52.900Z,10.90
2018-06-15T04:49:21.895Z,10.30
2018-06-15T04:51:50.921Z,10.50
2018-06-15T04:54:19.911Z,10.17
2018-06-15T04:56:49.148Z,10.40
2018-06-15T04:59:18.140Z,10.10
2018-06-15T05:01:47.137Z,10.07
2018-06-15T05:04:16.160Z,9.07
2018-06-15T05:06:45.149Z,9.43
2018-06-15T05:09:14.258Z,9.57
2018-06-15T05:11:43.209Z,8.80
2018-06-15T05:14:12.228Z,8.87
2018-06-15T05:16:41.220Z,8.53
2018-06-15T05:19:10.305Z,9.30
2018-06-15T05:21:39.653Z,7.87
2018-06-15T05:24:08.710Z,9.70
2018-06-15T05:26:37.785Z,8.37
2018-06-15T05:29:06.853Z,8.40
2018-06-15T05:31:35.833Z,7.80
2018-06-15T05:34:04.693Z,7.43
2018-06-15T05:36:33.724Z,6.70
2018-06-15T05:39:02.855Z,7.13
2018-06-15T05:41:31.876Z,5.90
2018-06-15T05:44:00.856Z,6.07
2018-06-15T05:46:29.890Z,7.00
2018-06-15T05:48:58.876Z,5.37
2018-06-15T05:51:27.877Z,5.83
2018-06-15T05:53:56.896Z,6.50
2018-06-15T05:56:25.937Z,5.73
2018-06-15T05:58:54.969Z,5.90
2018-06-15T06:01:23.992Z,5.57
2018-06-15T06:03:53.503Z,5.97
2018-06-15T06:06:22.766Z,6.07
2018-06-15T06:08:51.780Z,5.20
2018-06-15T06:11:21.041Z,5.00
2018-06-15T06:13:50.026Z,4.83
2018-06-15T06:16:19.009Z,4.60
2018-06-15T06:18:48.028Z,4.60
2018-06-15T06:21:17.008Z,4.10
2018-06-15T06:23:46.076Z,5.70
2018-06-15T06:26:15.101Z,4.57
2018-06-15T06:28:44.077Z,5.27
2018-06-15T06:31:13.090Z,4.30
2018-06-15T06:33:42.073Z,4.23
2018-06-15T06:36:11.054Z,4.67
2018-06-15T06:38:40.080Z,4.67
2018-06-15T06:41:09.096Z,4.37
2018-06-15T06:43:38.291Z,4.37
2018-06-15T06:46:07.335Z,3.97
2018-06-15T06:48:36.475Z,4.30
2018-06-15T06:51:05.517Z,4.47
2018-06-15T06:53:34.500Z,4.90
2018-06-15T06:56:03.516Z,4.20
2018-06-15T06:58:32.851Z,5.20
2018-06-15T07:01:01.825Z,4.40
2018-06-15T07:03:30.840Z,4.90
2018-06-15T07:05:59.852Z,3.50
2018-06-15T07:08:28.830Z,4.60
2018-06-15T07:10:57.852Z,4.37
2018-06-15T07:13:26.841Z,4.40
2018-06-15T07:15:55.862Z,4.03
2018-06-15T07:18:24.852Z,4.20
2018-06-15T07:20:53.985Z,4.20
2018-06-15T07:23:22.986Z,3.50
2018-06-15T07:25:52.010Z,3.57
2018-06-15T07:28:21.013Z,4.07
2018-06-15T07:30:50.156Z,2.80
2018-06-15T07:33:19.140Z,3.03
2018-06-15T07:35:48.127Z,2.90
2018-06-15T07:38:17.149Z,3.20
2018-06-15T07:40:46.185Z,3.10
2018-06-15T07:43:15.208Z,3.33
2018-06-15T07:45:44.220Z,4.10
2018-06-15T07:48:13.623Z,3.37
2018-06-15T07:50:42.609Z,3.50
2018-06-15T07:53:11.585Z,3.67
2018-06-15T07:55:40.413Z,3.30
2018-06-15T07:58:09.532Z,3.20
2018-06-15T08:00:38.592Z,3.33
2018-06-15T08:03:07.654Z,3.53
2018-06-15T08:05:36.645Z,5.50
2018-06-15T08:08:05.709Z,2.93
2018-06-15T08:10:34.724Z,3.10
2018-06-15T08:13:03.709Z,3.20
2018-06-15T08:15:33.328Z,4.33
2018-06-15T08:18:02.344Z,3.20
2018-06-15T08:20:31.329Z,3.23
2018-06-15T08:23:00.345Z,2.93
2018-06-15T08:25:29.326Z,2.63
2018-06-15T08:27:58.309Z,3.30
2018-06-15T08:30:27.329Z,2.80
2018-06-15T08:32:56.325Z,2.87
2018-06-15T08:35:25.362Z,3.70
2018-06-15T08:37:54.361Z,3.60
2018-06-15T08:40:23.357Z,3.27
2018-06-15T08:42:52.403Z,4.17
2018-06-15T08:45:21.385Z,3.40
2018-06-15T08:47:50.408Z,3.40
2018-06-15T08:50:19.393Z,2.73
2018-06-15T08:52:48.431Z,2.97
2018-06-15T08:55:17.417Z,3.03
2018-06-15T08:57:46.413Z,3.90
2018-06-15T09:00:15.753Z,3.40
2018-06-15T09:02:44.764Z,4.60
2018-06-15T09:05:13.753Z,4.00
2018-06-15T09:07:42.768Z,3.97
2018-06-15T09:10:11.757Z,3.60
2018-06-15T09:12:40.904Z,2.90
2018-06-15T09:15:09.941Z,2.40
2018-06-15T09:17:38.948Z,3.10
2018-06-15T09:20:08.138Z,2.63
2018-06-15T09:22:37.147Z,3.00
2018-06-15T09:25:06.414Z,3.13
2018-06-15T09:27:35.397Z,3.03
2018-06-15T09:30:04.597Z,3.47
2018-06-15T09:32:34.066Z,3.67
2018-06-15T09:35:03.032Z,3.80
2018-06-15T09:37:32.055Z,2.87
2018-06-15T09:40:01.045Z,4.10
2018-06-15T09:42:30.325Z,3.30
2018-06-15T09:44:59.336Z,3.10
2018-06-15T09:47:28.353Z,2.87
2018-06-15T09:49:57.382Z,2.73
2018-06-15T09:52:26.422Z,3.30
2018-06-15T09:54:55.207Z,2.70
2018-06-15T09:57:24.085Z,3.67
2018-06-15T09:59:53.097Z,2.87
2018-06-15T10:02:22.120Z,2.77
2018-06-15T10:04:51.114Z,3.63
2018-06-15T10:07:20.092Z,3.07
2018-06-15T10:09:49.125Z,3.33
2018-06-15T10:12:18.146Z,2.20
2018-06-15T10:14:47.153Z,3.17
2018-06-15T10:17:16.181Z,3.20
2018-06-15T10:19:45.165Z,5.13
2018-06-15T10:22:14.141Z,3.43
2018-06-15T10:24:43.164Z,3.00
2018-06-15T10:27:12.170Z,3.20
2018-06-15T10:29:41.160Z,4.70
2018-06-15T10:32:10.184Z,3.33
2018-06-15T10:34:39.219Z,4.37
2018-06-15T10:37:08.221Z,3.50
2018-06-15T10:39:37.344Z,3.70
2018-06-15T10:42:06.761Z,3.80
2018-06-15T10:44:35.864Z,2.77
2018-06-15T10:47:04.874Z,3.13
2018-06-15T10:49:33.860Z,3.27
2018-06-15T10:52:02.880Z,2.80
2018-06-15T10:54:31.861Z,2.40
2018-06-15T10:57:00.892Z,2.57
2018-06-15T10:59:30.016Z,3.83
2018-06-15T11:01:59.002Z,3.80
2018-06-15T11:04:28.073Z,3.80
2018-06-15T11:06:57.056Z,3.90
2018-06-15T11:09:26.090Z,4.50
2018-06-15T11:11:55.100Z,5.00
2018-06-15T11:14:24.149Z,4.03
2018-06-15T11:16:53.012Z,3.63
2018-06-15T11:19:21.913Z,3.80
2018-06-15T11:21:50.908Z,3.30
2018-06-15T11:24:20.163Z,3.90
2018-06-15T11:26:49.190Z,4.27
2018-06-15T11:29:18.177Z,4.50
2018-06-15T11:31:47.188Z,4.60
2018-06-15T11:34:16.212Z,4.17
2018-06-15T11:36:45.236Z,5.73
2018-06-15T11:39:14.261Z,4.77
2018-06-15T11:41:43.397Z,5.07
2018-06-15T11:44:12.413Z,5.97
2018-06-15T11:46:41.400Z,5.90
2018-06-15T11:49:10.442Z,5.07
2018-06-15T11:51:39.484Z,5.40
2018-06-15T11:54:08.586Z,5.00
2018-06-15T11:56:37.632Z,5.43
2018-06-15T11:59:07.064Z,5.40
2018-06-15T12:01:36.056Z,5.20
2018-06-15T12:04:05.849Z,3.77
2018-06-15T12:06:34.883Z,4.00
2018-06-15T12:09:05.513Z,4.10
2018-06-15T12:11:35.584Z,3.43
2018-06-15T12:14:04.601Z,1.67
2018-06-15T12:16:33.753Z,2.07
2018-06-15T12:19:02.731Z,1.23
2018-06-15T12:21:31.708Z,0.83
2018-06-15T12:24:00.729Z,0.80
2018-06-15T12:26:29.704Z,0.70
2018-06-15T12:28:58.729Z,0.80
2018-06-15T12:31:28.002Z,0.70
2018-06-15T12:33:56.981Z,0.73
2018-06-15T12:36:26.312Z,0.70
2018-06-15T12:38:55.461Z,0.93
2018-06-15T12:41:24.485Z,1.17
2018-06-15T12:43:53.521Z,0.87
2018-06-15T12:46:22.521Z,1.50
2018-06-15T12:48:51.564Z,2.30
2018-06-15T12:51:20.644Z,1.23
2018-06-15T12:53:49.592Z,1.27
2018-06-15T12:56:18.612Z,1.57
2018-06-15T12:58:47.592Z,1.00
2018-06-15T13:01:16.644Z,1.30
2018-06-15T13:03:45.675Z,1.50
2018-06-15T13:06:14.657Z,1.67
2018-06-15T13:08:43.636Z,1.80
2018-06-15T13:11:12.656Z,1.93
2018-06-15T13:13:41.635Z,1.53
2018-06-15T13:16:10.661Z,1.47
2018-06-15T13:18:39.656Z,1.93
2018-06-15T13:21:08.731Z,1.93
2018-06-15T13:23:38.291Z,2.30
2018-06-15T13:26:07.550Z,2.60
2018-06-15T13:28:36.572Z,2.80
2018-06-15T13:31:05.993Z,4.87
2018-06-15T13:33:35.168Z,1.70
2018-06-15T13:36:04.548Z,2.13
2018-06-15T13:38:33.996Z,1.27
2018-06-15T13:41:03.082Z,1.17
2018-06-15T13:43:32.711Z,1.40
2018-06-15T13:46:01.756Z,1.13
2018-06-15T13:48:30.773Z,1.10
2018-06-15T13:50:59.800Z,1.17
2018-06-15T13:53:28.876Z,1.17
2018-06-15T13:55:58.308Z,1.20
2018-06-15T13:58:27.608Z,1.13
2018-06-15T14:00:56.692Z,1.57
2018-06-15T14:03:25.811Z,1.43
2018-06-15T14:05:55.507Z,1.27
2018-06-15T14:08:24.549Z,1.23
2018-06-15T14:10:53.733Z,1.77
2018-06-15T14:13:23.033Z,1.70
2018-06-15T14:15:52.257Z,2.20
2018-06-15T14:18:21.343Z,1.30
2018-06-15T14:20:50.452Z,1.53
2018-06-15T14:23:19.526Z,1.13
2018-06-15T14:25:48.649Z,1.40
2018-06-15T14:28:17.860Z,1.20
2018-06-15T14:30:47.301Z,1.40
2018-06-15T14:33:16.312Z,1.13
2018-06-15T14:35:45.491Z,1.50
2018-06-15T14:38:14.681Z,1.40
2018-06-15T14:40:44.413Z,1.80
2018-06-15T14:43:13.584Z,1.80
2018-06-15T14:45:43.088Z,1.93
2018-06-15T14:48:12.042Z,1.67
2018-06-15T14:50:41.000Z,1.40
2018-06-15T14:53:10.039Z,1.53
2018-06-15T14:55:39.157Z,1.50
2018-06-15T14:58:08.261Z,1.60
2018-06-15T15:00:37.561Z,1.40
2018-06-15T15:03:06.840Z,2.00
2018-06-15T15:05:36.721Z,1.40
2018-06-15T15:08:05.960Z,1.70
2018-06-15T15:10:34.917Z,2.00
2018-06-15T15:13:03.944Z,1.40
2018-06-15T15:15:32.968Z,2.40
2018-06-15T15:18:02.294Z,2.00
2018-06-15T15:20:31.328Z,1.40
2018-06-15T15:23:00.509Z,2.07
2018-06-15T15:25:29.507Z,1.60
2018-06-15T15:27:58.517Z,2.17
2018-06-15T15:30:27.961Z,2.90
2018-06-15T15:32:57.220Z,5.17
2018-06-15T15:35:26.245Z,9.30
2018-06-15T15:37:55.065Z,2.40
2018-06-15T15:40:23.961Z,2.30
2018-06-15T15:42:53.028Z,2.30
2018-06-15T15:45:22.076Z,2.03
2018-06-15T15:47:51.369Z,2.37
2018-06-15T15:50:20.507Z,2.23
2018-06-15T15:52:49.729Z,2.13
2018-06-15T15:55:18.796Z,1.97
2018-06-15T15:57:47.843Z,2.10
2018-06-15T16:00:16.851Z,1.60
2018-06-15T16:02:45.868Z,1.83
2018-06-15T16:05:14.943Z,1.90
2018-06-15T16:07:43.985Z,2.27
2018-06-15T16:10:13.055Z,2.13
2018-06-15T16:12:42.101Z,3.77
2018-06-15T16:15:11.128Z,2.20
2018-06-15T16:17:40.182Z,2.47
2018-06-15T16:20:09.246Z,2.03
2018-06-15T16:22:38.314Z,1.90
2018-06-15T16:25:07.457Z,1.80
2018-06-15T16:27:39.098Z,2.07
2018-06-15T16:30:08.216Z,2.50
2018-06-15T16:32:37.451Z,1.90
2018-06-15T16:35:06.757Z,1.63
2018-06-15T16:37:35.894Z,2.37
2018-06-15T16:40:05.156Z,2.33
2018-06-15T16:42:34.352Z,1.60
2018-06-15T16:45:03.451Z,2.23
2018-06-15T16:47:39.248Z,2.23
2018-06-15T16:50:08.442Z,2.17
2018-06-15T16:52:37.516Z,2.20
2018-06-15T16:55:07.264Z,1.80
2018-06-15T16:57:36.373Z,2.30
2018-06-15T17:00:05.666Z,2.27
2018-06-15T17:02:35.072Z,3.07
2018-06-15T17:05:04.090Z,2.10
2018-06-15T17:07:33.165Z,2.40
2018-06-15T17:10:02.436Z,1.97
2018-06-15T17:12:31.739Z,2.33
2018-06-15T17:15:00.745Z,2.20
2018-06-15T17:17:29.790Z,2.50
2018-06-15T17:19:58.784Z,2.20
2018-06-15T17:22:27.980Z,2.43
2018-06-15T17:24:57.187Z,2.43
2018-06-15T17:27:26.499Z,2.33
2018-06-15T17:29:56.335Z,2.17
2018-06-15T17:32:25.704Z,2.87
2018-06-15T17:34:56.017Z,2.33
2018-06-15T17:37:25.112Z,2.50
2018-06-15T17:39:54.108Z,2.90
2018-06-15T17:42:23.322Z,2.80
2018-06-15T17:44:52.701Z,2.47
2018-06-15T17:47:21.712Z,2.43
2018-06-15T17:49:50.794Z,2.43
2018-06-15T17:52:19.889Z,3.30
2018-06-15T17:54:48.952Z,3.07
2018-06-15T17:57:18.295Z,3.70
2018-06-15T17:59:47.318Z,3.40
2018-06-15T18:02:16.313Z,2.80
2018-06-15T18:04:45.362Z,3.10
2018-06-15T18:07:14.372Z,3.00
2018-06-15T18:09:43.416Z,3.73
2018-06-15T18:12:12.444Z,2.40
2018-06-15T18:14:41.815Z,2.03
2018-06-15T18:17:10.808Z,2.70
2018-06-15T18:19:39.836Z,2.80
2018-06-15T18:22:09.009Z,2.63
2018-06-15T18:24:38.124Z,3.17
2018-06-15T18:27:07.307Z,2.97
2018-06-15T18:29:36.489Z,3.70
2018-06-15T18:32:05.555Z,2.50
2018-06-15T18:34:34.885Z,2.73
2018-06-15T18:37:03.972Z,2.70
2018-06-15T18:39:33.012Z,2.70
2018-06-15T18:42:01.997Z,2.97
2018-06-15T18:44:31.021Z,3.83
2018-06-15T18:47:00.557Z,4.60
2018-06-15T18:49:29.653Z,5.13
2018-06-15T18:51:58.743Z,4.60
2018-06-15T18:54:27.856Z,5.23
2018-06-15T18:56:56.856Z,3.27
2018-06-15T18:59:25.877Z,4.03
2018-06-15T19:01:55.012Z,15.07
2018-06-15T19:04:24.097Z,7.43
2018-06-15T19:06:53.904Z,5.37
2018-06-15T19:09:25.168Z,4.23
2018-06-15T19:11:54.489Z,4.10
2018-06-15T19:14:23.540Z,3.70
2018-06-15T19:16:52.561Z,3.90
2018-06-15T19:19:21.855Z,4.07
2018-06-15T19:21:50.911Z,3.77
2018-06-15T19:24:19.903Z,4.10
2018-06-15T19:26:49.101Z,4.13
2018-06-15T19:29:18.067Z,3.93
2018-06-15T19:31:47.096Z,3.53
2018-06-15T19:34:16.175Z,3.30
2018-06-15T19:36:45.837Z,3.70
2018-06-15T19:39:14.944Z,3.80
2018-06-15T19:41:44.087Z,4.60
2018-06-15T19:44:13.824Z,3.87
2018-06-15T19:46:42.597Z,3.57
2018-06-15T19:49:11.771Z,3.37
2018-06-15T19:51:42.392Z,4.00
2018-06-15T19:54:11.797Z,4.27
2018-06-15T19:56:41.104Z,4.87
2018-06-15T19:59:13.275Z,5.30
2018-06-15T20:01:42.412Z,5.17
2018-06-15T20:04:11.504Z,3.87
2018-06-15T20:06:40.323Z,5.47
2018-06-15T20:09:09.569Z,5.33
2018-06-15T20:11:38.924Z,4.27
2018-06-15T20:14:11.831Z,4.90
2018-06-15T20:16:44.685Z,5.20
2018-06-15T20:19:14.452Z,5.20
2018-06-15T20:21:43.646Z,4.90
2018-06-15T20:24:13.668Z,4.60
2018-06-15T20:26:42.765Z,4.10
2018-06-15T20:29:11.816Z,5.43
2018-06-15T20:31:41.056Z,6.17
2018-06-15T20:34:10.053Z,6.07
2018-06-15T20:36:39.336Z,6.00
2018-06-15T20:39:09.859Z,4.50
2018-06-15T20:41:39.027Z,4.87
2018-06-15T20:44:08.191Z,4.37
2018-06-15T20:46:37.346Z,5.10
2018-06-15T20:49:06.549Z,6.40
2018-06-15T20:51:36.389Z,25.23
2018-06-15T20:54:07.841Z,6.93
2018-06-15T20:56:38.144Z,5.07
2018-06-15T20:59:08.557Z,5.17
2018-06-15T21:01:37.611Z,5.63
2018-06-15T21:04:06.649Z,5.67
2018-06-15T21:06:35.692Z,5.53
2018-06-15T21:09:07.570Z,7.70
2018-06-15T21:11:36.682Z,11.47
2018-06-15T21:14:05.777Z,12.97
2018-06-15T21:16:35.128Z,11.87
2018-06-15T21:19:04.432Z,10.50
2018-06-15T21:21:33.513Z,9.20
2018-06-15T21:24:02.578Z,9.70
2018-06-15T21:26:31.690Z,8.03
2018-06-15T21:29:00.752Z,9.10
2018-06-15T21:31:29.828Z,10.50
2018-06-15T21:33:58.929Z,8.67
2018-06-15T21:36:29.762Z,8.63
2018-06-15T21:38:59.537Z,8.03
2018-06-15T21:41:29.473Z,8.70
2018-06-15T21:43:58.774Z,10.57
2018-06-15T21:46:27.966Z,10.30
2018-06-15T21:48:57.120Z,8.30
2018-06-15T21:51:26.117Z,13.60
2018-06-15T21:53:55.237Z,8.67
2018-06-15T21:56:24.627Z,7.17
2018-06-15T21:58:53.931Z,6.47
2018-06-15T22:01:26.728Z,7.87
2018-06-15T22:03:56.247Z,7.57
2018-06-15T22:06:25.286Z,7.20
2018-06-15T22:08:54.417Z,6.60
2018-06-15T22:11:23.556Z,7.00
2018-06-15T22:13:53.205Z,6.90
2018-06-15T22:16:22.257Z,7.43
2018-06-15T22:18:51.688Z,7.00
2018-06-15T22:21:20.701Z,8.43
2018-06-15T22:23:49.873Z,8.00
2018-06-15T22:26:18.932Z,7.47
2018-06-15T22:28:47.916Z,7.77
2018-06-15T22:31:17.011Z,6.80
2018-06-15T22:33:46.436Z,6.77
2018-06-15T22:36:15.468Z,6.40
2018-06-15T22:38:44.629Z,7.10
2018-06-15T22:41:13.840Z,6.60
2018-06-15T22:43:42.933Z,6.40
2018-06-15T22:46:12.192Z,6.50
2018-06-15T22:48:41.211Z,7.23
2018-06-15T22:51:10.212Z,7.50
2018-06-15T22:53:39.454Z,6.67
2018-06-15T22:56:08.559Z,6.60
2018-06-15T22:58:37.709Z,7.00
2018-06-15T23:01:06.907Z,6.97
2018-06-15T23:03:35.934Z,6.23
2018-06-15T23:06:05.143Z,6.70
2018-06-15T23:08:34.244Z,6.80
2018-06-15T23:11:03.357Z,6.77
2018-06-15T23:13:32.484Z,6.93
2018-06-15T23:16:01.754Z,6.93
2018-06-15T23:18:30.911Z,5.40
2018-06-15T23:21:00.104Z,6.53
2018-06-15T23:23:29.316Z,6.20
2018-06-15T23:25:58.453Z,6.37
2018-06-15T23:28:27.459Z,6.80
2018-06-15T23:30:56.700Z,7.70
2018-06-15T23:33:25.892Z,6.77
2018-06-15T23:35:55.058Z,6.07
2018-06-15T23:38:24.386Z,8.00
2018-06-15T23:40:53.384Z,6.70
2018-06-15T23:43:22.389Z,6.73
2018-06-15T23:45:51.526Z,7.60
2018-06-15T23:48:20.497Z,6.47
2018-06-15T23:50:49.680Z,6.80
2018-06-15T23:53:18.803Z,6.17
2018-06-15T23:55:47.834Z,6.40
2018-06-15T23:58:16.907Z,6.70
